Time;durP1;ratioP1;P1;durP2;ratioP2;P2;SDS_P1;SDS_P2;PMS_P1;PMS_P2;Temp;Humidity;BMP_temperature;BMP_pressure;BME280_temperature;BME280_humidity;BME280_pressure;Samples;Min_cycle;Max_cycle;Signal;HPM_P1;HPM_P2
2021/12/09 00:00:01;;;;;;;22.40;11.43;;;2.10;99.90;;;;;;5042121;28;20045;-59
2021/12/09 00:02:32;;;;;;;23.00;11.65;;;2.10;99.90;;;;;;5047978;28;20051;-59
2021/12/09 00:05:05;;;;;;;16.98;10.13;;;1.60;99.90;;;;;;5044712;28;20420;-59
2021/12/09 00:07:42;;;;;;;18.75;10.80;;;;;;;;;;5035549;28;20045;-59
2021/12/09 00:10:09;;;;;;;21.88;10.98;;;;;;;;;;5040949;28;20050;-59
2021/12/09 00:12:40;;;;;;;20.60;10.55;;;;;;;;;;5045926;28;20121;-59
2021/12/09 00:15:06;;;;;;;18.55;10.48;;;;;;;;;;5039521;28;20480;-59
2021/12/09 00:17:35;;;;;;;18.35;10.65;;;1.80;99.90;;;;;;5045931;28;20036;-59
2021/12/09 00:20:04;;;;;;;20.67;10.85;;;;;;;;;;5039816;28;20049;-59
2021/12/09 00:22:30;;;;;;;17.45;11.20;;;;;;;;;;5049940;28;20103;-59
2021/12/09 00:24:58;;;;;;;21.00;10.02;;;1.60;99.90;;;;;;5040821;28;20045;-59
2021/12/09 00:27:27;;;;;;;21.90;11.45;;;;;;;;;;5043379;28;20095;-59
2021/12/09 00:29:53;;;;;;;16.77;10.25;;;;;;;;;;5045271;28;20083;-59
2021/12/09 00:32:20;;;;;;;19.73;10.73;;;;;;;;;;5031231;28;20040;-59
2021/12/09 00:34:51;;;;;;;21.20;9.75;;;1.80;99.90;;;;;;5043931;28;20140;-59
2021/12/09 00:37:36;;;;;;;17.83;9.65;;;;;;;;;;5044638;28;20049;-59
2021/12/09 00:40:05;;;;;;;20.63;9.98;;;;;;;;;;5052196;28;20037;-58
2021/12/09 00:42:34;;;;;;;18.10;10.38;;;;;;;;;;5050684;28;20159;-59
2021/12/09 00:45:01;;;;;;;18.23;10.15;;;;;;;;;;5048881;28;20049;-59
2021/12/09 00:47:27;;;;;;;19.80;9.90;;;;;;;;;;5053445;28;20493;-59
2021/12/09 00:49:56;;;;;;;18.48;11.15;;;;;;;;;;5043895;28;20041;-59
2021/12/09 00:52:24;;;;;;;19.50;10.60;;;1.70;99.90;;;;;;5052115;28;20443;-59
2021/12/09 00:54:51;;;;;;;20.85;11.82;;;;;;;;;;5047019;28;20144;-59
2021/12/09 00:57:23;;;;;;;18.63;10.82;;;1.30;99.90;;;;;;5028415;28;20033;-58
2021/12/09 00:59:49;;;;;;;17.15;10.45;;;;;;;;;;5046200;28;20041;-58
2021/12/09 01:02:15;;;;;;;19.00;10.88;;;;;;;;;;5011116;28;20044;-59
2021/12/09 01:04:42;;;;;;;19.02;11.13;;;;;;;;;;5052096;28;20116;-59
2021/12/09 01:07:08;;;;;;;19.85;11.20;;;;;;;;;;5032151;28;20131;-58
2021/12/09 01:09:38;;;;;;;20.35;11.40;;;;;;;;;;5030203;28;20036;-59
2021/12/09 01:12:04;;;;;;;19.10;11.65;;;;;;;;;;5052792;28;20041;-58
2021/12/09 01:14:31;;;;;;;17.40;11.63;;;;;;;;;;5046163;28;20036;-57
2021/12/09 01:16:59;;;;;;;20.92;11.18;;;;;;;;;;5052603;28;20407;-58
2021/12/09 01:19:28;;;;;;;21.20;12.00;;;;;;;;;;5040138;28;20506;-57
2021/12/09 01:21:57;;;;;;;20.77;12.00;;;;;;;;;;5057396;28;20521;-59
2021/12/09 01:24:26;;;;;;;23.65;12.20;;;;;;;;;;5071059;28;20091;-58
2021/12/09 01:26:52;;;;;;;21.40;12.57;;;;;;;;;;5039143;28;20488;-58
2021/12/09 01:29:27;;;;;;;21.42;11.77;;;1.50;99.90;;;;;;5035413;28;20041;-58
2021/12/09 01:32:00;;;;;;;28.10;14.27;;;;;;;;;;5036748;28;20041;-59
2021/12/09 01:34:29;;;;;;;25.27;12.98;;;;;;;;;;5042887;28;20041;-59
2021/12/09 01:36:55;;;;;;;23.70;14.23;;;1.40;99.90;;;;;;5034275;28;20116;-59
2021/12/09 01:39:26;;;;;;;28.58;13.60;;;1.50;99.90;;;;;;5043945;28;20045;-59
2021/12/09 01:41:52;;;;;;;32.28;15.32;;;;;;;;;;5051808;28;20626;-59
2021/12/09 01:44:19;;;;;;;22.83;14.20;;;;;;;;;;5045665;28;20029;-56
2021/12/09 01:46:47;;;;;;;29.55;14.35;;;1.30;99.90;;;;;;5043681;28;20512;-59
2021/12/09 01:49:16;;;;;;;27.60;14.35;;;1.40;99.90;;;;;;5048421;28;20033;-59
2021/12/09 01:51:46;;;;;;;26.58;13.75;;;;;;;;;;5051607;28;20489;-59
2021/12/09 01:54:15;;;;;;;24.98;14.43;;;;;;;;;;5051850;28;20041;-59
2021/12/09 01:56:40;;;;;;;24.92;14.13;;;1.40;99.90;;;;;;5045518;28;20044;-59
2021/12/09 01:59:10;;;;;;;26.58;15.10;;;1.50;99.90;;;;;;5045229;28;20037;-59
2021/12/09 02:01:37;;;;;;;25.30;14.60;;;;;;;;;;5046745;28;20403;-59
2021/12/09 02:04:13;;;;;;;25.48;15.02;;;1.70;99.90;;;;;;5047390;28;20045;-59
2021/12/09 02:06:42;;;;;;;23.33;13.95;;;;;;;;;;5043179;28;20087;-58
2021/12/09 02:09:10;;;;;;;25.02;15.07;;;;;;;;;;5047890;28;20064;-57
2021/12/09 02:11:36;;;;;;;26.13;15.18;;;;;;;;;;5051319;28;20492;-59
2021/12/09 02:14:06;;;;;;;30.45;15.27;;;;;;;;;;5039642;28;20042;-59
2021/12/09 02:16:35;;;;;;;25.50;15.00;;;;;;;;;;5047522;28;20033;-58
2021/12/09 02:19:01;;;;;;;29.33;14.73;;;;;;;;;;5046030;28;20167;-59
2021/12/09 02:21:32;;;;;;;27.27;16.75;;;;;;;;;;5039392;28;20041;-57
2021/12/09 02:24:01;;;;;;;27.33;15.38;;;1.50;99.90;;;;;;5051485;28;20490;-59
2021/12/09 02:26:31;;;;;;;24.67;15.07;;;;;;;;;;5042076;28;20040;-59
2021/12/09 02:28:57;;;;;;;27.98;15.63;;;;;;;;;;5046647;28;20563;-60
2021/12/09 02:31:23;;;;;;;30.85;15.35;;;;;;;;;;5043558;28;20117;-59
2021/12/09 02:33:55;;;;;;;27.30;15.65;;;;;;;;;;5038474;28;20492;-59
2021/12/09 02:36:21;;;;;;;32.05;16.10;;;;;;;;;;5045899;28;20041;-59
2021/12/09 02:38:51;;;;;;;28.70;15.75;;;1.50;99.90;;;;;;5050941;28;20041;-58
2021/12/09 02:41:21;;;;;;;28.88;16.88;;;1.60;99.90;;;;;;5033013;28;20033;-57
2021/12/09 02:43:55;;;;;;;30.42;16.20;;;1.20;99.90;;;;;;5024778;28;20045;-58
2021/12/09 02:46:23;;;;;;;27.13;15.17;;;;;;;;;;5047468;28;20107;-56
2021/12/09 02:48:52;;;;;;;32.13;17.23;;;1.70;99.90;;;;;;5050002;28;20045;-57
2021/12/09 02:51:18;;;;;;;30.35;16.90;;;1.30;99.90;;;;;;5044463;28;20032;-59
2021/12/09 02:53:46;;;;;;;32.97;18.25;;;1.30;99.90;;;;;;5046127;28;20172;-59
2021/12/09 02:56:15;;;;;;;25.10;16.02;;;;;;;;;;5043814;28;20120;-57
2021/12/09 02:58:41;;;;;;;34.70;19.58;;;1.40;99.90;;;;;;5045836;28;20495;-58
2021/12/09 03:01:13;;;;;;;29.33;17.17;;;1.30;99.90;;;;;;5049084;28;20036;-58
2021/12/09 03:03:48;;;;;;;;;;;;;;;;;;5035829;28;20033;-58
2021/12/09 03:06:14;;;;;;;29.05;17.90;;;;;;;;;;5030876;28;20337;-58
2021/12/09 03:08:43;;;;;;;29.95;17.77;;;;;;;;;;5044152;28;20419;-57
2021/12/09 03:11:12;;;;;;;29.08;16.95;;;;;;;;;;5050611;28;20041;-58
2021/12/09 03:13:40;;;;;;;29.90;17.63;;;1.60;99.90;;;;;;5046415;28;20045;-58
2021/12/09 03:16:09;;;;;;;31.27;18.05;;;;;;;;;;5039366;28;20040;-57
2021/12/09 03:18:45;;;;;;;28.63;18.17;;;;;;;;;;5050443;28;20049;-57
2021/12/09 03:21:19;;;;;;;30.63;18.95;;;;;;;;;;5043587;28;20032;-56
2021/12/09 03:23:46;;;;;;;36.55;18.45;;;;;;;;;;5032832;28;20545;-59
2021/12/09 03:26:12;;;;;;;37.70;19.15;;;;;;;;;;5043523;28;20037;-59
2021/12/09 03:28:38;;;;;;;30.90;18.58;;;1.40;99.90;;;;;;5049608;28;20068;-59
2021/12/09 03:31:06;;;;;;;31.17;17.35;;;1.20;99.90;;;;;;5024629;28;20046;-59
2021/12/09 03:33:35;;;;;;;35.95;19.38;;;1.30;99.90;;;;;;5044665;28;20033;-58
2021/12/09 03:36:03;;;;;;;31.08;18.38;;;;;;;;;;5042435;28;20052;-58
2021/12/09 03:38:29;;;;;;;33.38;20.67;;;1.20;99.90;;;;;;5036994;28;20133;-59
2021/12/09 03:40:58;;;;;;;30.98;18.63;;;1.10;99.90;;;;;;5030059;28;20076;-58
2021/12/09 03:43:27;;;;;;;38.97;21.10;;;;;;;;;;5037850;28;20091;-59
2021/12/09 03:45:55;;;;;;;33.58;18.17;;;;;;;;;;5036565;28;20492;-59
2021/12/09 03:48:25;;;;;;;37.97;19.17;;;1.50;99.90;;;;;;5028998;28;20084;-59
2021/12/09 03:50:51;;;;;;;37.58;20.08;;;;;;;;;;5051247;28;20069;-58
2021/12/09 03:53:23;;;;;;;35.33;20.85;;;1.20;99.90;;;;;;5033662;28;20176;-58
2021/12/09 03:55:49;;;;;;;36.40;20.02;;;;;;;;;;5031302;28;20045;-58
2021/12/09 03:58:19;;;;;;;33.05;20.70;;;;;;;;;;5046472;28;20044;-56
2021/12/09 04:00:49;;;;;;;39.95;20.60;;;;;;;;;;5049562;28;20037;-57
2021/12/09 04:03:16;;;;;;;30.50;19.95;;;1.10;99.90;;;;;;5023143;28;20407;-58
2021/12/09 04:05:45;;;;;;;37.13;19.48;;;1.50;99.90;;;;;;5045573;28;20032;-57
2021/12/09 04:08:11;;;;;;;30.50;20.30;;;;;;;;;;5044932;28;20042;-57
2021/12/09 04:10:40;;;;;;;34.38;20.23;;;1.10;99.90;;;;;;5041636;28;20032;-59
2021/12/09 04:13:09;;;;;;;31.83;20.90;;;;;;;;;;5052382;28;20041;-59
2021/12/09 04:15:35;;;;;;;37.25;20.77;;;1.10;99.90;;;;;;5040981;28;20037;-58
2021/12/09 04:18:04;;;;;;;36.40;21.73;;;;;;;;;;5053556;28;20392;-57
2021/12/09 04:20:33;;;;;;;36.55;20.83;;;0.80;99.90;;;;;;5047851;28;20458;-58
2021/12/09 04:23:03;;;;;;;38.30;21.02;;;;;;;;;;5053717;28;20094;-58
2021/12/09 04:25:32;;;;;;;33.78;19.90;;;;;;;;;;5048458;28;20087;-58
2021/12/09 04:27:58;;;;;;;37.70;20.35;;;1.20;99.90;;;;;;5050137;28;20045;-57
2021/12/09 04:30:29;;;;;;;33.35;20.90;;;;;;;;;;5045715;28;20199;-57
2021/12/09 04:33:01;;;;;;;33.50;20.80;;;0.60;99.90;;;;;;5048903;28;20109;-57
2021/12/09 04:35:26;;;;;;;34.67;20.00;;;1.10;99.90;;;;;;5040269;28;20037;-57
2021/12/09 04:37:52;;;;;;;38.72;21.25;;;;;;;;;;5027697;28;20084;-58
2021/12/09 04:40:19;;;;;;;32.70;21.05;;;;;;;;;;5047937;28;20139;-57
2021/12/09 04:42:45;;;;;;;34.55;20.73;;;;;;;;;;5049367;28;20072;-59
2021/12/09 04:45:11;;;;;;;33.20;21.70;;;;;;;;;;5046086;28;20072;-57
2021/12/09 04:47:38;;;;;;;36.40;21.50;;;0.80;99.90;;;;;;5053292;28;20507;-58
2021/12/09 04:50:05;;;;;;;36.17;19.75;;;;;;;;;;5042141;28;20456;-58
2021/12/09 04:52:31;;;;;;;36.88;20.20;;;;;;;;;;5031784;28;20029;-57
2021/12/09 04:54:57;;;;;;;39.13;20.42;;;;;;;;;;5051501;28;20500;-57
2021/12/09 04:57:24;;;;;;;34.92;20.58;;;;;;;;;;5041356;28;20033;-59
2021/12/09 04:59:53;;;;;;;39.03;20.33;;;;;;;;;;5050787;28;20047;-59
2021/12/09 05:02:28;;;;;;;40.95;21.27;;;;;;;;;;5041162;28;20033;-58
2021/12/09 05:04:57;;;;;;;35.75;20.65;;;;;;;;;;5052506;28;20045;-59
2021/12/09 05:07:23;;;;;;;32.88;20.35;;;;;;;;;;5052399;28;20079;-59
2021/12/09 05:09:51;;;;;;;31.67;19.67;;;0.80;99.90;;;;;;5040854;28;20117;-58
2021/12/09 05:12:19;;;;;;;34.13;21.05;;;1.00;99.90;;;;;;5067279;28;20068;-58
2021/12/09 05:14:45;;;;;;;38.88;21.75;;;;;;;;;;5047580;28;20071;-58
2021/12/09 05:17:11;;;;;;;38.97;21.30;;;;;;;;;;5045839;28;20045;-56
2021/12/09 05:19:40;;;;;;;36.95;20.65;;;;;;;;;;5047659;28;20037;-58
2021/12/09 05:22:09;;;;;;;39.65;21.15;;;;;;;;;;5041898;28;20041;-59
2021/12/09 05:24:37;;;;;;;37.15;22.70;;;;;;;;;;5055800;28;20810;-58
2021/12/09 05:27:04;;;;;;;35.90;21.58;;;;;;;;;;5055361;28;20504;-59
2021/12/09 05:29:39;;;;;;;36.20;21.65;;;;;;;;;;5043154;28;20041;-57
2021/12/09 05:32:08;;;;;;;38.28;20.92;;;;;;;;;;5045798;28;20037;-57
2021/12/09 05:34:43;;;;;;;37.72;22.75;;;;;;;;;;5049035;28;20033;-56
2021/12/09 05:37:12;;;;;;;46.15;24.48;;;;;;;;;;5052517;28;20046;-58
2021/12/09 05:39:41;;;;;;;41.88;22.52;;;;;;;;;;5062083;28;20040;-57
2021/12/09 05:42:18;;;;;;;37.90;22.13;;;;;;;;;;5062734;28;20388;-57
2021/12/09 05:44:44;;;;;;;36.58;22.00;;;;;;;;;;5047455;28;20041;-56
2021/12/09 05:47:12;;;;;;;40.03;22.20;;;;;;;;;;5064836;28;20048;-57
2021/12/09 05:49:40;;;;;;;36.38;20.40;;;1.10;99.90;;;;;;5051831;28;20049;-57
2021/12/09 05:52:06;;;;;;;33.08;20.95;;;;;;;;;;5052400;28;20045;-58
2021/12/09 05:54:33;;;;;;;37.35;20.70;;;;;;;;;;5045166;28;20045;-56
2021/12/09 05:56:58;;;;;;;45.45;22.17;;;1.20;99.90;;;;;;5047864;28;20047;-58
2021/12/09 05:59:25;;;;;;;42.47;22.73;;;1.20;99.90;;;;;;5034127;28;20033;-57
2021/12/09 06:01:51;;;;;;;38.58;21.63;;;1.10;99.90;;;;;;5045667;28;20504;-57
2021/12/09 06:04:17;;;;;;;35.70;21.10;;;1.20;99.90;;;;;;5034406;28;20094;-58
2021/12/09 06:06:43;;;;;;;39.30;22.20;;;1.20;99.90;;;;;;5041019;28;20049;-57
2021/12/09 06:09:10;;;;;;;37.30;21.00;;;1.70;99.90;;;;;;5040413;28;20084;-57
2021/12/09 06:11:37;;;;;;;36.85;20.83;;;;;;;;;;5046675;28;20028;-56
2021/12/09 06:14:04;;;;;;;36.80;20.33;;;;;;;;;;5048714;28;20144;-56
2021/12/09 06:16:30;;;;;;;38.08;21.17;;;;;;;;;;5044561;28;20515;-58
2021/12/09 06:18:55;;;;;;;35.67;21.65;;;1.30;99.90;;;;;;5051750;28;20037;-58
2021/12/09 06:21:24;;;;;;;35.78;19.67;;;1.30;99.90;;;;;;5051468;28;20626;-57
2021/12/09 06:23:50;;;;;;;35.38;20.80;;;;;;;;;;5052372;28;20041;-59
2021/12/09 06:26:16;;;;;;;33.03;20.10;;;1.20;99.90;;;;;;5051623;28;20033;-59
2021/12/09 06:28:42;;;;;;;38.58;20.05;;;;;;;;;;5050608;28;20499;-56
2021/12/09 06:31:08;;;;;;;34.15;19.38;;;;;;;;;;5049313;28;20033;-59
2021/12/09 06:33:34;;;;;;;38.78;20.40;;;1.20;99.90;;;;;;5051545;28;20044;-58
2021/12/09 06:36:00;;;;;;;34.72;18.80;;;;;;;;;;5051993;28;20056;-58
2021/12/09 06:38:26;;;;;;;33.03;19.08;;;;;;;;;;5050267;28;20040;-59
2021/12/09 06:40:53;;;;;;;31.80;19.02;;;;;;;;;;5052057;28;20479;-58
2021/12/09 06:43:19;;;;;;;38.60;20.23;;;;;;;;;;5052266;28;20353;-58
2021/12/09 06:45:45;;;;;;;35.75;18.67;;;;;;;;;;5048317;28;20036;-59
2021/12/09 06:48:11;;;;;;;37.58;18.67;;;1.20;99.90;;;;;;5052181;28;20492;-59
2021/12/09 06:50:37;;;;;;;35.95;20.67;;;1.10;99.90;;;;;;5049962;28;20033;-58
2021/12/09 06:53:03;;;;;;;33.78;19.27;;;1.10;99.90;;;;;;5051739;28;20055;-59
2021/12/09 06:55:29;;;;;;;38.83;18.40;;;;;;;;;;5051614;28;20040;-59
2021/12/09 06:57:56;;;;;;;32.85;18.50;;;;;;;;;;5048877;28;20043;-58
2021/12/09 07:00:28;;;;;;;36.25;20.65;;;0.70;99.90;;;;;;5051806;28;20051;-57
2021/12/09 07:02:55;;;;;;;36.08;19.73;;;1.10;99.90;;;;;;5047698;28;20124;-58
2021/12/09 07:05:22;;;;;;;34.65;18.80;;;;;;;;;;5032483;28;20032;-59
2021/12/09 07:07:50;;;;;;;36.10;20.58;;;;;;;;;;5033694;28;20492;-59
2021/12/09 07:10:16;;;;;;;34.05;20.95;;;;;;;;;;5051765;28;20514;-59
2021/12/09 07:12:42;;;;;;;34.70;20.05;;;1.20;99.90;;;;;;5050260;28;20028;-59
2021/12/09 07:15:09;;;;;;;37.47;20.85;;;;;;;;;;5053172;28;20044;-59
2021/12/09 07:17:35;;;;;;;33.50;19.25;;;1.10;99.90;;;;;;5051398;28;20035;-58
2021/12/09 07:20:01;;;;;;;36.25;20.25;;;;;;;;;;5046530;28;20041;-58
2021/12/09 07:22:27;;;;;;;38.13;19.65;;;1.20;99.90;;;;;;5051584;28;20525;-58
2021/12/09 07:24:54;;;;;;;38.85;19.45;;;;;;;;;;5058023;28;20047;-57
2021/12/09 07:27:20;;;;;;;36.38;19.08;;;;;;;;;;5051906;28;20048;-58
2021/12/09 07:29:46;;;;;;;34.75;19.73;;;;;;;;;;5049875;28;20511;-55
2021/12/09 07:32:12;;;;;;;34.17;19.10;;;;;;;;;;5048033;28;20412;-57
2021/12/09 07:34:38;;;;;;;32.90;20.70;;;;;;;;;;5049008;28;20128;-57
2021/12/09 07:39:33;;;;;;;33.22;18.17;;;;;;;;;;5042955;28;20064;-58
2021/12/09 07:42:00;;;;;;;38.75;19.63;;;;;;;;;;5038568;28;20056;-58
2021/12/09 07:44:30;;;;;;;34.50;19.63;;;1.60;99.90;;;;;;5011326;28;20080;-59
2021/12/09 07:46:57;;;;;;;39.15;19.15;;;;;;;;;;5011324;28;20378;-57
2021/12/09 07:49:23;;;;;;;32.95;16.70;;;;;;;;;;5011415;28;20026;-57
2021/12/09 07:51:50;;;;;;;36.38;19.63;;;;;;;;;;5011419;28;20038;-56
2021/12/09 07:54:16;;;;;;;32.78;17.95;;;1.10;99.90;;;;;;5011024;28;20038;-55
2021/12/09 07:56:42;;;;;;;38.30;17.65;;;1.00;99.90;;;;;;5011365;28;20441;-58
2021/12/09 07:59:11;;;;;;;30.60;17.77;;;0.90;99.90;;;;;;5011635;28;20042;-58
2021/12/09 08:01:40;;;;;;;33.50;18.48;;;1.00;99.90;;;;;;5010386;28;20519;-58
2021/12/09 08:04:07;;;;;;;28.25;17.08;;;;;;;;;;5011407;28;20140;-58
2021/12/09 08:06:34;;;;;;;36.83;18.25;;;;;;;;;;5026613;28;20088;-59
2021/12/09 08:09:00;;;;;;;35.15;18.33;;;;;;;;;;5014866;28;20046;-58
2021/12/09 08:11:26;;;;;;;35.63;18.58;;;;;;;;;;5026713;28;20041;-57
2021/12/09 08:13:52;;;;;;;34.10;19.10;;;;;;;;;;5011426;28;20069;-59
2021/12/09 08:16:18;;;;;;;34.53;18.08;;;1.00;99.90;;;;;;5013406;28;20084;-59
2021/12/09 08:18:54;;;;;;;30.33;18.38;;;;;;;;;;5012466;28;20046;-59
2021/12/09 08:21:21;;;;;;;37.00;19.27;;;1.00;99.90;;;;;;5011594;28;20431;-57
2021/12/09 08:23:47;;;;;;;36.17;18.05;;;;;;;;;;5012025;28;20089;-59
2021/12/09 08:26:13;;;;;;;33.47;19.05;;;;;;;;;;5009946;28;20060;-57
2021/12/09 08:28:39;;;;;;;41.15;19.30;;;;;;;;;;5012674;28;20030;-59
2021/12/09 08:31:05;;;;;;;31.55;17.10;;;;;;;;;;5011230;28;20038;-59
2021/12/09 08:33:31;;;;;;;34.55;18.67;;;1.20;99.90;;;;;;5011337;28;20402;-58
2021/12/09 08:35:57;;;;;;;34.08;17.70;;;;;;;;;;5011090;28;20045;-58
2021/12/09 08:38:23;;;;;;;32.38;18.50;;;;;;;;;;5011458;28;20500;-58
2021/12/09 08:40:50;;;;;;;30.80;16.75;;;;;;;;;;5015480;28;20059;-59
2021/12/09 08:43:16;;;;;;;33.63;16.60;;;;;;;;;;5012312;28;20042;-57
2021/12/09 08:45:42;;;;;;;29.60;16.98;;;;;;;;;;5011463;28;20053;-59
2021/12/09 08:48:09;;;;;;;37.30;17.73;;;;;;;;;;5011463;28;20120;-58
2021/12/09 08:50:35;;;;;;;36.40;18.23;;;;;;;;;;5012627;28;20034;-58
2021/12/09 08:53:03;;;;;;;31.83;18.02;;;;;;;;;;5011142;28;20121;-58
2021/12/09 08:55:29;;;;;;;33.63;17.27;;;;;;;;;;5028512;28;20096;-59
2021/12/09 08:57:55;;;;;;;32.13;17.58;;;;;;;;;;5014810;28;20042;-57
2021/12/09 09:00:23;;;;;;;34.60;16.15;;;;;;;;;;5014892;28;20046;-59
2021/12/09 09:02:50;;;;;;;36.95;16.48;;;1.40;99.90;;;;;;5015126;28;20045;-58
2021/12/09 09:05:17;;;;;;;32.25;16.90;;;;;;;;;;5014199;28;20048;-58
2021/12/09 09:07:44;;;;;;;33.10;17.15;;;;;;;;;;5029669;28;20042;-59
2021/12/09 09:10:10;;;;;;;31.58;16.50;;;;;;;;;;5014114;28;20576;-58
2021/12/09 09:12:37;;;;;;;31.05;16.30;;;;;;;;;;5014644;28;20037;-58
2021/12/09 09:15:08;;;;;;;30.52;16.70;;;2.10;99.90;;;;;;5014135;28;20049;-58
2021/12/09 09:17:34;;;;;;;29.52;16.30;;;1.30;99.90;;;;;;4996846;28;20049;-59
2021/12/09 09:20:00;;;;;;;27.63;16.52;;;;;;;;;;5016245;28;20046;-57
2021/12/09 09:22:26;;;;;;;29.95;16.25;;;1.60;99.90;;;;;;5014324;28;20042;-57
2021/12/09 09:24:52;;;;;;;30.02;16.77;;;;;;;;;;5012817;28;20029;-56
2021/12/09 09:27:18;;;;;;;31.90;16.42;;;;;;;;;;5014058;28;20428;-56
2021/12/09 09:29:44;;;;;;;29.52;17.33;;;;;;;;;;5013808;28;20038;-56
2021/12/09 09:32:13;;;;;;;36.05;19.13;;;;;;;;;;5014379;28;20409;-56
2021/12/09 09:34:39;;;;;;;27.20;15.18;;;2.40;99.90;;;;;;5013740;28;20052;-57
2021/12/09 09:37:05;;;;;;;30.35;15.90;;;;;;;;;;5014155;28;20413;-55
2021/12/09 09:39:32;;;;;;;27.92;17.55;;;2.00;99.90;;;;;;5013987;28;20046;-56
2021/12/09 09:42:45;;;;;;;31.25;15.65;;;1.50;99.90;;;;;;5013515;28;20109;-56
2021/12/09 09:44:56;;;;;;;28.52;14.55;;;2.60;99.90;;;;;;5015134;28;20468;-57
2021/12/09 09:47:23;;;;;;;23.75;14.27;;;;;;;;;;5013814;28;20057;-57
2021/12/09 09:49:50;;;;;;;26.98;14.88;;;1.80;99.90;;;;;;5018952;28;20045;-57
2021/12/09 09:52:16;;;;;;;25.63;15.07;;;;;;;;;;5013654;28;20077;-57
2021/12/09 09:54:42;;;;;;;25.35;14.95;;;2.40;99.90;;;;;;5014061;28;20045;-56
2021/12/09 09:57:09;;;;;;;26.58;14.05;;;2.30;99.90;;;;;;5013332;28;20088;-57
2021/12/09 09:59:35;;;;;;;23.73;13.52;;;;;;;;;;5013349;28;20559;-57
2021/12/09 10:02:02;;;;;;;27.48;13.60;;;2.40;99.90;;;;;;5013618;28;20042;-57
2021/12/09 10:04:46;;;;;;;21.85;13.18;;;;;;;;;;5012206;28;20046;-57
2021/12/09 10:07:13;;;;;;;23.77;13.35;;;;;;;;;;5012089;28;20047;-57
2021/12/09 10:09:39;;;;;;;28.95;15.40;;;;;;;;;;5011792;28;20050;-54
2021/12/09 10:12:05;;;;;;;26.13;13.43;;;;;;;;;;5013169;28;20048;-56
2021/12/09 10:14:33;;;;;;;25.08;13.85;;;;;;;;;;5011969;28;20623;-57
2021/12/09 10:17:12;;;;;;;22.65;13.05;;;;;;;;;;5012312;28;20128;-57
2021/12/09 10:19:48;;;;;;;21.63;11.15;;;2.70;99.90;;;;;;5011803;28;20506;-58
2021/12/09 10:22:16;;;;;;;23.40;12.88;;;;;;;;;;5012335;28;20072;-57
2021/12/09 10:24:43;;;;;;;21.65;12.23;;;;;;;;;;5012422;28;20069;-57
2021/12/09 10:27:24;;;;;;;23.75;11.48;;;3.40;99.90;;;;;;5013098;28;20065;-57
2021/12/09 10:29:55;;;;;;;21.50;12.38;;;3.10;99.90;;;;;;5004749;28;20038;-57
2021/12/09 10:32:26;;;;;;;24.45;11.80;;;;;;;;;;5012888;28;20088;-58
2021/12/09 10:34:52;;;;;;;22.55;12.32;;;;;;;;;;5007937;28;20389;-57
2021/12/09 10:37:25;;;;;;;21.88;11.35;;;;;;;;;;5015591;28;20041;-57
2021/12/09 10:39:56;;;;;;;27.05;12.02;;;;;;;;;;5011924;28;20112;-57
2021/12/09 10:42:25;;;;;;;21.98;12.20;;;;;;;;;;5012880;28;20040;-57
2021/12/09 10:45:04;;;;;;;23.52;11.55;;;;;;;;;;5010546;28;20038;-56
2021/12/09 10:47:49;;;;;;;25.13;13.75;;;;;;;;;;5009640;28;20045;-56
2021/12/09 10:50:38;;;;;;;23.65;13.65;;;3.80;99.90;;;;;;5011349;28;20401;-57
2021/12/09 10:55:51;;;;;;;34.95;15.95;;;3.50;99.90;;;;;;5012487;28;20057;-57
2021/12/09 10:58:26;;;;;;;24.58;12.55;;;;;;;;;;5007680;28;20054;-56
2021/12/09 11:00:56;;;;;;;29.60;14.73;;;;;;;;;;5011570;28;20104;-56
2021/12/09 11:03:29;;;;;;;25.63;14.75;;;2.80;99.90;;;;;;5010056;28;20252;-57
2021/12/09 11:06:06;;;;;;;28.27;13.75;;;3.90;99.90;;;;;;5011262;28;20033;-57
2021/12/09 11:08:36;;;;;;;24.77;14.38;;;;;;;;;;4992794;28;20038;-57
2021/12/09 11:11:16;;;;;;;24.67;13.70;;;;;;;;;;5011369;28;20124;-57
2021/12/09 11:13:45;;;;;;;28.63;15.75;;;;;;;;;;5011843;28;20424;-56
2021/12/09 11:16:11;;;;;;;34.28;15.95;;;;;;;;;;5004596;28;20049;-57
2021/12/09 11:18:45;;;;;;;33.13;15.88;;;;;;;;;;5010866;28;20357;-57
2021/12/09 11:21:19;;;;;;;30.95;15.27;;;3.60;99.90;;;;;;5008082;28;20412;-57
2021/12/09 11:23:54;;;;;;;35.13;16.70;;;;;;;;;;5011622;28;20051;-56
2021/12/09 11:26:30;;;;;;;29.20;16.70;;;;;;;;;;5010743;28;20057;-57
2021/12/09 11:29:05;;;;;;;31.00;15.48;;;3.70;99.90;;;;;;5005049;28;20038;-57
2021/12/09 11:31:34;;;;;;;34.15;17.60;;;3.60;99.90;;;;;;5011588;28;20440;-57
2021/12/09 11:34:09;;;;;;;29.60;16.00;;;;;;;;;;5005915;28;20080;-57
2021/12/09 11:36:39;;;;;;;32.35;16.55;;;;;;;;;;5011364;28;20041;-56
2021/12/09 11:39:11;;;;;;;32.92;16.27;;;3.90;99.90;;;;;;5011404;28;20458;-57
2021/12/09 11:41:39;;;;;;;35.83;18.10;;;3.60;99.90;;;;;;5011251;28;20274;-57
2021/12/09 11:44:08;;;;;;;30.02;17.17;;;;;;;;;;5011720;28;20507;-56
2021/12/09 11:46:35;;;;;;;28.98;16.83;;;3.90;99.90;;;;;;5009649;28;20085;-57
2021/12/09 11:49:00;;;;;;;33.40;17.10;;;3.80;99.90;;;;;;5012063;28;20114;-57
2021/12/09 11:51:26;;;;;;;28.33;16.55;;;;;;;;;;5010525;28;20479;-57
2021/12/09 11:53:56;;;;;;;31.35;16.00;;;4.00;99.90;;;;;;5011554;28;20042;-56
2021/12/09 12:13:01;;;;;;;33.22;18.80;;;;;;;;;;5005582;28;20408;-57
2021/12/09 12:15:37;;;;;;;33.42;16.75;;;;;;;;;;5009391;28;20042;-57
2021/12/09 12:18:18;;;;;;;33.33;17.45;;;;;;;;;;5011352;28;20038;-55
2021/12/09 12:20:55;;;;;;;35.03;19.55;;;;;;;;;;5011377;28;20112;-56
2021/12/09 12:23:39;;;;;;;32.78;18.60;;;;;;;;;;5006690;28;20057;-57
2021/12/09 12:26:38;;;;;;;31.65;18.60;;;;;;;;;;5010797;28;20045;-57
2021/12/09 12:39:35;;;;;;;31.52;17.75;;;;;;;;;;5011063;28;20100;-57
2021/12/09 12:42:08;;;;;;;34.55;17.10;;;;;;;;;;5011445;28;20103;-57
2021/12/09 12:44:34;;;;;;;28.15;16.73;;;;;;;;;;5014291;28;20041;-56
2021/12/09 12:47:12;;;;;;;29.05;16.23;;;;;;;;;;5014047;28;20050;-57
2021/12/09 12:49:45;;;;;;;34.70;18.20;;;;;;;;;;5014593;28;20549;-57
2021/12/09 12:52:26;;;;;;;35.63;17.40;;;4.30;99.90;;;;;;5013072;28;20034;-57
2021/12/09 12:54:56;;;;;;;34.05;15.75;;;;;;;;;;5009902;28;20062;-56
2021/12/09 12:57:31;;;;;;;28.17;16.17;;;;;;;;;;5013585;28;20627;-56
2021/12/09 13:00:14;;;;;;;30.70;16.35;;;4.40;99.90;;;;;;5014345;28;20280;-56
2021/12/09 13:05:47;;;;;;;31.90;16.55;;;4.10;99.90;;;;;;5014028;28;20065;-57
2021/12/09 13:13:51;;;;;;;41.13;17.50;;;4.50;99.90;;;;;;5013948;28;20476;-57
2021/12/09 13:19:18;;;;;;;29.50;17.30;;;;;;;;;;5014751;28;20745;-56
2021/12/09 13:21:55;;;;;;;32.85;17.27;;;3.90;99.90;;;;;;5013955;28;20045;-58
2021/12/09 13:24:23;;;;;;;31.75;15.68;;;;;;;;;;5021511;28;20049;-57
2021/12/09 13:27:25;;;;;;;30.02;16.73;;;4.10;99.90;;;;;;5013464;28;20523;-55
2021/12/09 13:33:19;;;;;;;33.53;16.45;;;4.30;99.90;;;;;;5013998;28;20037;-55
2021/12/09 13:36:13;;;;;;;28.58;16.60;;;;;;;;;;5013548;28;20049;-57
2021/12/09 13:55:08;;;;;;;36.40;17.58;;;4.20;99.90;;;;;;5018320;28;20042;-57
2021/12/09 13:57:36;;;;;;;31.45;16.60;;;;;;;;;;5012560;28;20045;-56
2021/12/09 14:00:08;;;;;;;37.53;19.30;;;;;;;;;;5011672;28;20439;-55
2021/12/09 14:02:33;;;;;;;37.75;17.83;;;4.30;99.90;;;;;;5020771;28;20507;-56
2021/12/09 14:05:00;;;;;;;34.70;17.15;;;;;;;;;;5012360;28;20042;-57
2021/12/09 14:07:28;;;;;;;29.95;16.17;;;4.40;99.90;;;;;;5008881;28;20034;-57
2021/12/09 14:09:59;;;;;;;29.38;17.15;;;;;;;;;;5013195;28;20117;-56
2021/12/09 14:12:34;;;;;;;31.10;17.67;;;4.50;99.90;;;;;;5001172;28;20349;-57
2021/12/09 14:15:07;;;;;;;28.13;15.55;;;;;;;;;;5012483;28;20034;-56
2021/12/09 14:17:36;;;;;;;32.92;17.67;;;;;;;;;;5005432;28;20515;-58
2021/12/09 14:20:03;;;;;;;35.05;18.15;;;;;;;;;;5012241;28;20412;-58
2021/12/09 14:22:28;;;;;;;29.52;17.25;;;4.40;99.90;;;;;;5008229;28;20053;-55
2021/12/09 14:24:55;;;;;;;31.25;17.20;;;;;;;;;;5010945;28;20038;-56
2021/12/09 14:27:21;;;;;;;31.55;17.35;;;;;;;;;;5007239;28;20085;-58
2021/12/09 14:29:53;;;;;;;26.58;15.95;;;4.50;99.90;;;;;;5010913;28;20056;-56
2021/12/09 14:32:21;;;;;;;34.55;17.30;;;4.80;99.90;;;;;;5012784;28;20396;-58
2021/12/09 14:34:49;;;;;;;28.52;16.00;;;;;;;;;;5004453;28;20389;-58
2021/12/09 14:37:17;;;;;;;31.63;16.58;;;4.60;99.90;;;;;;5012922;28;20045;-57
2021/12/09 14:39:44;;;;;;;25.70;14.63;;;;;;;;;;5013007;28;20045;-56
2021/12/09 14:42:12;;;;;;;27.70;15.07;;;;;;;;;;5012638;28;20049;-57
2021/12/09 14:44:39;;;;;;;30.73;15.80;;;;;;;;;;5025061;28;20129;-57
2021/12/09 14:47:11;;;;;;;29.17;15.85;;;4.60;99.90;;;;;;5009369;28;20046;-57
2021/12/09 14:49:50;;;;;;;28.75;14.15;;;4.50;99.90;;;;;;5010890;28;20488;-56
2021/12/09 14:52:36;;;;;;;28.75;14.18;;;;;;;;;;5010993;28;20056;-58